AAL1958 SAME-SCEL
Flight info
| Callsign | AAL1958 |
|---|---|
| Flight time | N/A |
| Altitude | 260 |
| Route | UMKA2G UMKAL UMKA7C |
| Aircraft | B738/M-VGDW/C |
Departure
| Time | 2026-04-24 20:20 |
|---|---|
| Airport | Governor Francisco Gabrielli International Airport (SAME) |
Arrival
| Time | N/A |
|---|---|
| Airport | Comodoro Arturo Merino Benítez International Airport (SCEL) |
| Time | Latitude | Longitude | Altitude | Speed | Heading |
|---|---|---|---|---|---|
| 2026-04-24 20:11 | -32.82849 | -68.79657 | 2326 ft | 0 kts | 270° |
| 2026-04-24 20:17 | -32.82849 | -68.79659 | 2326 ft | 1 kts | 266° |
| 2026-04-24 20:18 | -32.82882 | -68.79686 | 2326 ft | 15 kts | 179° |
| 2026-04-24 20:18 | -32.82883 | -68.79637 | 2326 ft | 13 kts | 12° |
| 2026-04-24 20:18 | -32.82731 | -68.79644 | 2324 ft | 23 kts | 23° |
| 2026-04-24 20:18 | -32.82593 | -68.79504 | 2321 ft | 27 kts | 17° |
| 2026-04-24 20:19 | -32.82328 | -68.79498 | 2316 ft | 48 kts | 0° |
| 2026-04-24 20:19 | -32.82009 | -68.79497 | 2313 ft | 29 kts | 359° |
| 2026-04-24 20:19 | -32.81894 | -68.79403 | 2309 ft | 14 kts | 94° |
| 2026-04-24 20:19 | -32.82069 | -68.79260 | 2314 ft | 71 kts | 187° |
| 2026-04-24 20:20 | -32.82878 | -68.79283 | 2326 ft | 156 kts | 182° |
| 2026-04-24 20:20 | -32.84090 | -68.79308 | 2861 ft | 185 kts | 181° |
| 2026-04-24 20:20 | -32.85343 | -68.79340 | 3966 ft | 190 kts | 181° |
| 2026-04-24 20:20 | -32.86769 | -68.79364 | 4626 ft | 221 kts | 180° |
| 2026-04-24 20:21 | -32.88434 | -68.79360 | 5162 ft | 259 kts | 179° |
| 2026-04-24 20:21 | -32.90366 | -68.79296 | 5631 ft | 300 kts | 176° |
| 2026-04-24 20:21 | -32.92425 | -68.78802 | 6719 ft | 313 kts | 153° |
| 2026-04-24 20:21 | -32.93889 | -68.77281 | 8964 ft | 280 kts | 125° |
| 2026-04-24 20:22 | -32.94696 | -68.75214 | 10169 ft | 284 kts | 106° |
| 2026-04-24 20:22 | -32.95013 | -68.72903 | 11290 ft | 285 kts | 92° |
| 2026-04-24 20:22 | -32.94891 | -68.70542 | 12151 ft | 297 kts | 84° |
| 2026-04-24 20:22 | -32.94772 | -68.68003 | 12565 ft | 324 kts | 92° |
| 2026-04-24 20:23 | -32.94951 | -68.65287 | 13333 ft | 336 kts | 96° |
| 2026-04-24 20:23 | -32.95216 | -68.62498 | 14207 ft | 345 kts | 97° |
| 2026-04-24 20:23 | -32.95488 | -68.59670 | 15141 ft | 350 kts | 97° |
| 2026-04-24 20:23 | -32.95770 | -68.56853 | 15754 ft | 345 kts | 97° |
| 2026-04-24 20:24 | -32.95969 | -68.54923 | 16162 ft | 354 kts | 97° |
| 2026-04-24 20:24 | -32.96374 | -68.51031 | 17328 ft | 361 kts | 97° |
| 2026-04-24 20:24 | -32.96586 | -68.48054 | 18125 ft | 366 kts | 88° |
| 2026-04-24 20:24 | -32.96057 | -68.45086 | 18916 ft | 371 kts | 66° |
| 2026-04-24 20:25 | -32.94570 | -68.42612 | 19706 ft | 374 kts | 42° |
| 2026-04-24 20:25 | -32.92339 | -68.41065 | 20442 ft | 378 kts | 18° |
| 2026-04-24 20:25 | -32.89743 | -68.40739 | 21154 ft | 382 kts | 353° |
| 2026-04-24 20:25 | -32.87224 | -68.41714 | 21839 ft | 386 kts | 329° |
| 2026-04-24 20:26 | -32.85251 | -68.43802 | 22495 ft | 390 kts | 307° |
| 2026-04-24 20:26 | -32.83962 | -68.46644 | 23161 ft | 394 kts | 288° |
| 2026-04-24 20:26 | -32.83487 | -68.49829 | 23774 ft | 398 kts | 274° |
| 2026-04-24 20:26 | -32.83338 | -68.53183 | 23984 ft | 412 kts | 274° |
| 2026-04-24 20:27 | -32.83016 | -68.56606 | 24000 ft | 416 kts | 276° |
| 2026-04-24 20:27 | -32.82896 | -68.60007 | 24002 ft | 414 kts | 269° |
| 2026-04-24 20:27 | -32.82983 | -68.63427 | 24000 ft | 412 kts | 268° |
| 2026-04-24 20:27 | -32.83065 | -68.66798 | 24000 ft | 412 kts | 269° |
| 2026-04-24 20:28 | -32.83125 | -68.70216 | 24000 ft | 413 kts | 269° |
| 2026-04-24 20:28 | -32.83188 | -68.73631 | 24000 ft | 413 kts | 269° |
| 2026-04-24 20:28 | -32.83259 | -68.77018 | 24000 ft | 413 kts | 269° |
| 2026-04-24 20:28 | -32.83335 | -68.80411 | 24000 ft | 413 kts | 268° |
| 2026-04-24 20:29 | -32.83406 | -68.82708 | 24000 ft | 413 kts | 268° |
| 2026-04-24 20:29 | -32.83578 | -68.87207 | 24000 ft | 413 kts | 267° |
| 2026-04-24 20:29 | -32.83704 | -68.90606 | 24000 ft | 413 kts | 268° |
| 2026-04-24 20:29 | -32.83826 | -68.94013 | 24000 ft | 413 kts | 268° |
| 2026-04-24 20:30 | -32.83949 | -68.97456 | 24000 ft | 413 kts | 268° |
| 2026-04-24 20:30 | -32.84068 | -69.00822 | 23999 ft | 413 kts | 268° |
| 2026-04-24 20:30 | -32.84188 | -69.04239 | 23999 ft | 413 kts | 268° |
| 2026-04-24 20:30 | -32.84307 | -69.07642 | 23999 ft | 413 kts | 268° |
| 2026-04-24 20:31 | -32.84426 | -69.11056 | 23999 ft | 413 kts | 268° |
| 2026-04-24 20:31 | -32.84543 | -69.14477 | 23999 ft | 413 kts | 268° |
| 2026-04-24 20:31 | -32.84662 | -69.17869 | 23999 ft | 413 kts | 267° |
| 2026-04-24 20:31 | -32.84814 | -69.21271 | 24000 ft | 413 kts | 266° |
| 2026-04-24 20:32 | -32.84985 | -69.24653 | 23999 ft | 413 kts | 266° |
| 2026-04-24 20:32 | -32.85150 | -69.28041 | 23999 ft | 413 kts | 266° |
| 2026-04-24 20:32 | -32.85313 | -69.31489 | 23999 ft | 413 kts | 266° |
| 2026-04-24 20:32 | -32.85471 | -69.34862 | 23999 ft | 413 kts | 266° |
| 2026-04-24 20:33 | -32.85630 | -69.38286 | 23999 ft | 413 kts | 266° |
| 2026-04-24 20:33 | -32.85787 | -69.41663 | 23999 ft | 413 kts | 266° |
| 2026-04-24 20:33 | -32.85943 | -69.45075 | 24001 ft | 414 kts | 266° |
| 2026-04-24 20:33 | -32.86101 | -69.48528 | 24001 ft | 425 kts | 266° |
| 2026-04-24 20:34 | -32.86262 | -69.52087 | 24000 ft | 440 kts | 266° |
| 2026-04-24 20:34 | -32.86428 | -69.55770 | 23998 ft | 456 kts | 266° |
| 2026-04-24 20:34 | -32.86599 | -69.59590 | 23998 ft | 460 kts | 266° |
| 2026-04-24 20:34 | -32.86766 | -69.63352 | 23999 ft | 459 kts | 266° |
| 2026-04-24 20:35 | -32.86931 | -69.67117 | 23999 ft | 458 kts | 267° |
| 2026-04-24 20:35 | -32.87098 | -69.70929 | 24000 ft | 458 kts | 267° |
| 2026-04-24 20:35 | -32.87263 | -69.74703 | 24000 ft | 458 kts | 267° |
| 2026-04-24 20:35 | -32.87425 | -69.78456 | 24000 ft | 458 kts | 267° |
| 2026-04-24 20:36 | -32.87587 | -69.82243 | 24000 ft | 458 kts | 267° |
| 2026-04-24 20:36 | -32.87746 | -69.85982 | 23999 ft | 457 kts | 267° |
| 2026-04-24 20:36 | -32.87907 | -69.89781 | 23999 ft | 456 kts | 267° |
| 2026-04-24 20:36 | -32.88065 | -69.93536 | 24000 ft | 455 kts | 267° |